sensor_id;sensor_type;location;lat;lon;timestamp;pressure;altitude;pressure_sealevel;temperature;humidity
85304;BME280;75708;47.930;13.782;2024-02-28T00:02:10;95880.03;;;2.72;93.88
85304;BME280;75708;47.930;13.782;2024-02-28T00:04:36;95887.34;;;2.63;93.79
85304;BME280;75708;47.930;13.782;2024-02-28T00:07:01;95908.81;;;2.73;94.51
85304;BME280;75708;47.930;13.782;2024-02-28T00:09:27;95913.31;;;2.73;94.50
85304;BME280;75708;47.930;13.782;2024-02-28T00:11:53;95911.28;;;2.68;93.50
85304;BME280;75708;47.930;13.782;2024-02-28T00:14:18;95894.81;;;2.46;94.73
85304;BME280;75708;47.930;13.782;2024-02-28T00:16:44;95906.22;;;2.53;94.13
85304;BME280;75708;47.930;13.782;2024-02-28T00:19:11;95905.19;;;2.41;93.69
85304;BME280;75708;47.930;13.782;2024-02-28T00:21:40;95920.41;;;2.46;95.23
85304;BME280;75708;47.930;13.782;2024-02-28T00:24:06;95913.91;;;2.35;95.64
85304;BME280;75708;47.930;13.782;2024-02-28T00:26:32;95929.09;;;2.40;96.10
85304;BME280;75708;47.930;13.782;2024-02-28T00:28:58;95929.09;;;2.26;95.74
85304;BME280;75708;47.930;13.782;2024-02-28T00:31:23;95922.41;;;2.24;96.66
85304;BME280;75708;47.930;13.782;2024-02-28T00:33:49;95918.31;;;2.21;95.87
85304;BME280;75708;47.930;13.782;2024-02-28T00:36:14;95944.84;;;2.13;96.11
85304;BME280;75708;47.930;13.782;2024-02-28T00:38:43;95934.72;;;2.04;95.96
85304;BME280;75708;47.930;13.782;2024-02-28T00:41:08;95912.41;;;2.00;96.32
85304;BME280;75708;47.930;13.782;2024-02-28T00:43:34;95913.44;;;1.99;96.54
85304;BME280;75708;47.930;13.782;2024-02-28T00:46:00;95932.31;;;2.09;96.35
85304;BME280;75708;47.930;13.782;2024-02-28T00:48:25;95937.38;;;2.10;96.55
85304;BME280;75708;47.930;13.782;2024-02-28T00:50:52;95935.38;;;2.19;97.00
85304;BME280;75708;47.930;13.782;2024-02-28T00:53:18;95938.00;;;2.25;96.50
85304;BME280;75708;47.930;13.782;2024-02-28T00:55:44;95935.38;;;2.19;95.33
85304;BME280;75708;47.930;13.782;2024-02-28T00:58:10;95928.63;;;2.03;96.43
85304;BME280;75708;47.930;13.782;2024-02-28T01:00:35;95937.56;;;2.02;96.10
85304;BME280;75708;47.930;13.782;2024-02-28T01:03:01;95943.28;;;2.25;95.12
85304;BME280;75708;47.930;13.782;2024-02-28T01:05:29;95951.56;;;2.09;95.79
85304;BME280;75708;47.930;13.782;2024-02-28T01:07:55;95926.41;;;2.07;96.08
85304;BME280;75708;47.930;13.782;2024-02-28T01:10:20;95952.63;;;2.35;95.74
85304;BME280;75708;47.930;13.782;2024-02-28T01:12:46;95965.75;;;2.21;95.68
85304;BME280;75708;47.930;13.782;2024-02-28T01:15:12;95964.88;;;1.95;95.21
85304;BME280;75708;47.930;13.782;2024-02-28T01:17:38;95978.28;;;2.00;95.62
85304;BME280;75708;47.930;13.782;2024-02-28T01:20:05;95973.38;;;1.97;96.41
85304;BME280;75708;47.930;13.782;2024-02-28T01:22:32;95977.91;;;2.09;96.75
85304;BME280;75708;47.930;13.782;2024-02-28T01:24:57;95981.75;;;2.20;95.20
85304;BME280;75708;47.930;13.782;2024-02-28T01:27:23;95969.16;;;2.02;95.18
85304;BME280;75708;47.930;13.782;2024-02-28T01:29:48;95978.78;;;2.56;95.70
85304;BME280;75708;47.930;13.782;2024-02-28T01:32:14;95987.94;;;2.73;95.20
85304;BME280;75708;47.930;13.782;2024-02-28T01:34:39;95984.91;;;2.83;93.69
85304;BME280;75708;47.930;13.782;2024-02-28T01:37:05;95981.66;;;2.94;93.22
85304;BME280;75708;47.930;13.782;2024-02-28T01:39:30;95966.44;;;2.76;93.38
85304;BME280;75708;47.930;13.782;2024-02-28T01:41:56;95973.75;;;2.94;92.68
85304;BME280;75708;47.930;13.782;2024-02-28T01:44:22;95979.44;;;2.84;91.99
85304;BME280;75708;47.930;13.782;2024-02-28T01:46:48;95990.78;;;2.78;91.25
85304;BME280;75708;47.930;13.782;2024-02-28T01:49:14;96002.75;;;2.68;91.49
85304;BME280;75708;47.930;13.782;2024-02-28T01:51:44;96000.34;;;2.79;92.11
85304;BME280;75708;47.930;13.782;2024-02-28T01:54:10;96003.78;;;3.13;90.34
85304;BME280;75708;47.930;13.782;2024-02-28T01:56:36;96009.25;;;3.37;89.29
85304;BME280;75708;47.930;13.782;2024-02-28T01:59:02;95995.03;;;3.38;89.29
85304;BME280;75708;47.930;13.782;2024-02-28T02:01:28;95996.84;;;3.38;88.69
85304;BME280;75708;47.930;13.782;2024-02-28T02:03:54;95992.19;;;3.20;89.16
85304;BME280;75708;47.930;13.782;2024-02-28T02:06:20;95993.84;;;3.15;88.79
85304;BME280;75708;47.930;13.782;2024-02-28T02:08:47;95985.50;;;2.91;91.05
85304;BME280;75708;47.930;13.782;2024-02-28T02:11:15;96009.88;;;2.93;90.87
85304;BME280;75708;47.930;13.782;2024-02-28T02:13:50;96001.16;;;3.13;90.17
85304;BME280;75708;47.930;13.782;2024-02-28T02:16:16;96009.28;;;3.05;91.23
85304;BME280;75708;47.930;13.782;2024-02-28T02:18:42;96009.06;;;3.06;91.81
85304;BME280;75708;47.930;13.782;2024-02-28T02:21:08;96017.59;;;3.15;90.80
85304;BME280;75708;47.930;13.782;2024-02-28T02:23:36;96006.00;;;3.22;91.17
85304;BME280;75708;47.930;13.782;2024-02-28T02:26:06;96014.34;;;3.32;89.56
85304;BME280;75708;47.930;13.782;2024-02-28T02:28:32;96012.91;;;3.30;89.73
85304;BME280;75708;47.930;13.782;2024-02-28T02:30:58;96009.47;;;3.23;89.25
85304;BME280;75708;47.930;13.782;2024-02-28T02:33:24;96022.88;;;3.21;90.34
85304;BME280;75708;47.930;13.782;2024-02-28T02:35:49;96017.97;;;3.18;89.23
85304;BME280;75708;47.930;13.782;2024-02-28T02:38:15;96014.13;;;2.94;89.99
85304;BME280;75708;47.930;13.782;2024-02-28T02:40:40;96025.50;;;3.01;90.56
85304;BME280;75708;47.930;13.782;2024-02-28T02:43:06;96024.50;;;2.96;90.96
85304;BME280;75708;47.930;13.782;2024-02-28T02:45:31;96029.78;;;3.16;90.67
85304;BME280;75708;47.930;13.782;2024-02-28T02:47:57;96024.09;;;3.25;90.34
85304;BME280;75708;47.930;13.782;2024-02-28T02:50:22;96044.34;;;3.45;89.20
85304;BME280;75708;47.930;13.782;2024-02-28T02:52:48;96035.81;;;3.56;88.59
85304;BME280;75708;47.930;13.782;2024-02-28T02:55:13;96035.00;;;3.55;89.04
85304;BME280;75708;47.930;13.782;2024-02-28T02:57:40;96019.19;;;3.49;89.31
85304;BME280;75708;47.930;13.782;2024-02-28T03:00:08;96019.16;;;3.55;88.79
85304;BME280;75708;47.930;13.782;2024-02-28T03:02:34;96021.22;;;3.47;89.25
85304;BME280;75708;47.930;13.782;2024-02-28T03:05:02;96017.97;;;3.51;89.20
85304;BME280;75708;47.930;13.782;2024-02-28T03:07:28;96010.25;;;3.36;90.08
85304;BME280;75708;47.930;13.782;2024-02-28T03:09:53;96012.09;;;3.10;90.35
85304;BME280;75708;47.930;13.782;2024-02-28T03:12:19;96019.63;;;3.06;90.43
85304;BME280;75708;47.930;13.782;2024-02-28T03:14:46;96030.38;;;3.05;90.38
85304;BME280;75708;47.930;13.782;2024-02-28T03:17:11;96033.00;;;3.18;90.63
85304;BME280;75708;47.930;13.782;2024-02-28T03:19:37;96029.56;;;3.17;90.05
85304;BME280;75708;47.930;13.782;2024-02-28T03:22:04;96033.41;;;3.21;90.16
85304;BME280;75708;47.930;13.782;2024-02-28T03:24:29;96039.91;;;3.32;89.20
85304;BME280;75708;47.930;13.782;2024-02-28T03:26:55;96024.25;;;3.44;88.78
85304;BME280;75708;47.930;13.782;2024-02-28T03:29:20;96041.50;;;3.46;88.20
85304;BME280;75708;47.930;13.782;2024-02-28T03:31:46;96050.25;;;3.40;88.25
85304;BME280;75708;47.930;13.782;2024-02-28T03:34:11;96054.94;;;3.38;88.87
85304;BME280;75708;47.930;13.782;2024-02-28T03:36:37;96054.13;;;3.37;89.25
85304;BME280;75708;47.930;13.782;2024-02-28T03:39:02;96045.59;;;3.22;89.05
85304;BME280;75708;47.930;13.782;2024-02-28T03:41:28;96048.03;;;3.17;89.39
85304;BME280;75708;47.930;13.782;2024-02-28T03:43:54;96051.91;;;3.15;90.02
85304;BME280;75708;47.930;13.782;2024-02-28T03:46:19;96050.06;;;3.22;90.04
85304;BME280;75708;47.930;13.782;2024-02-28T03:48:46;96052.28;;;3.38;90.00
85304;BME280;75708;47.930;13.782;2024-02-28T03:51:12;96065.28;;;3.59;89.31
85304;BME280;75708;47.930;13.782;2024-02-28T03:53:37;96068.31;;;3.63;89.08
85304;BME280;75708;47.930;13.782;2024-02-28T03:56:03;96067.72;;;3.67;89.19
85304;BME280;75708;47.930;13.782;2024-02-28T03:58:29;96072.56;;;3.64;88.95
85304;BME280;75708;47.930;13.782;2024-02-28T04:00:54;96076.84;;;3.65;89.40
85304;BME280;75708;47.930;13.782;2024-02-28T04:03:20;96072.59;;;3.57;89.04
85304;BME280;75708;47.930;13.782;2024-02-28T04:05:46;96081.91;;;3.73;88.61
85304;BME280;75708;47.930;13.782;2024-02-28T04:08:11;96060.00;;;3.46;88.23
85304;BME280;75708;47.930;13.782;2024-02-28T04:10:37;96065.69;;;3.10;90.33
85304;BME280;75708;47.930;13.782;2024-02-28T04:13:02;96088.22;;;3.06;90.24
85304;BME280;75708;47.930;13.782;2024-02-28T04:15:30;96095.53;;;3.37;89.98
85304;BME280;75708;47.930;13.782;2024-02-28T04:17:55;96094.53;;;3.45;89.43
85304;BME280;75708;47.930;13.782;2024-02-28T04:20:21;96109.56;;;3.44;89.57
85304;BME280;75708;47.930;13.782;2024-02-28T04:22:46;96098.59;;;3.34;90.04
85304;BME280;75708;47.930;13.782;2024-02-28T04:25:12;96086.81;;;3.23;91.34
85304;BME280;75708;47.930;13.782;2024-02-28T04:27:38;96074.22;;;3.19;90.04
85304;BME280;75708;47.930;13.782;2024-02-28T04:30:04;96097.97;;;3.78;88.26
85304;BME280;75708;47.930;13.782;2024-02-28T04:32:30;96089.84;;;3.66;89.11
85304;BME280;75708;47.930;13.782;2024-02-28T04:34:56;96100.19;;;3.74;88.22
85304;BME280;75708;47.930;13.782;2024-02-28T04:37:21;96117.06;;;3.80;88.40
85304;BME280;75708;47.930;13.782;2024-02-28T04:39:47;96120.72;;;3.86;88.18
85304;BME280;75708;47.930;13.782;2024-02-28T04:42:13;96100.41;;;3.73;88.36
85304;BME280;75708;47.930;13.782;2024-02-28T04:44:39;96103.44;;;3.70;88.74
85304;BME280;75708;47.930;13.782;2024-02-28T04:47:04;96096.34;;;3.70;88.05
85304;BME280;75708;47.930;13.782;2024-02-28T04:49:30;96098.59;;;3.67;88.61
85304;BME280;75708;47.930;13.782;2024-02-28T04:51:56;96121.75;;;3.65;88.84
85304;BME280;75708;47.930;13.782;2024-02-28T04:54:21;96104.88;;;3.66;89.11
85304;BME280;75708;47.930;13.782;2024-02-28T04:56:47;96096.53;;;3.62;89.18
85304;BME280;75708;47.930;13.782;2024-02-28T04:59:12;96116.22;;;3.93;89.05
85304;BME280;75708;47.930;13.782;2024-02-28T05:01:39;96123.75;;;3.89;88.89
85304;BME280;75708;47.930;13.782;2024-02-28T05:04:07;96116.84;;;3.95;88.46
85304;BME280;75708;47.930;13.782;2024-02-28T05:06:33;96125.78;;;3.87;88.17
85304;BME280;75708;47.930;13.782;2024-02-28T05:08:59;96134.75;;;3.73;88.96
85304;BME280;75708;47.930;13.782;2024-02-28T05:11:24;96125.19;;;3.65;89.05
85304;BME280;75708;47.930;13.782;2024-02-28T05:13:50;96131.50;;;3.77;88.41
85304;BME280;75708;47.930;13.782;2024-02-28T05:16:16;96131.28;;;3.86;88.35
85304;BME280;75708;47.930;13.782;2024-02-28T05:18:43;96133.31;;;3.90;88.17
85304;BME280;75708;47.930;13.782;2024-02-28T05:21:10;96130.47;;;3.85;88.26
85304;BME280;75708;47.930;13.782;2024-02-28T05:23:35;96139.19;;;3.92;88.21
85304;BME280;75708;47.930;13.782;2024-02-28T05:26:02;96149.38;;;3.82;88.69
85304;BME280;75708;47.930;13.782;2024-02-28T05:28:38;96147.75;;;3.74;87.94
85304;BME280;75708;47.930;13.782;2024-02-28T05:31:24;96147.53;;;3.69;88.33
85304;BME280;75708;47.930;13.782;2024-02-28T05:33:51;96145.31;;;3.73;88.16
85304;BME280;75708;47.930;13.782;2024-02-28T05:36:18;96127.44;;;3.68;87.21
85304;BME280;75708;47.930;13.782;2024-02-28T05:38:44;96139.81;;;3.74;88.02
85304;BME280;75708;47.930;13.782;2024-02-28T05:41:09;96152.03;;;3.75;88.52
85304;BME280;75708;47.930;13.782;2024-02-28T05:43:37;96145.09;;;3.88;86.86
85304;BME280;75708;47.930;13.782;2024-02-28T05:46:02;96156.06;;;3.91;87.36
85304;BME280;75708;47.930;13.782;2024-02-28T05:48:28;96165.00;;;4.10;86.07
85304;BME280;75708;47.930;13.782;2024-02-28T05:50:54;96153.19;;;4.06;85.77
85304;BME280;75708;47.930;13.782;2024-02-28T05:53:20;96170.66;;;4.13;86.35
85304;BME280;75708;47.930;13.782;2024-02-28T05:55:46;96170.91;;;4.12;85.92
85304;BME280;75708;47.930;13.782;2024-02-28T05:58:13;96179.38;;;4.34;85.01
85304;BME280;75708;47.930;13.782;2024-02-28T06:00:39;96193.00;;;4.37;85.43
85304;BME280;75708;47.930;13.782;2024-02-28T06:03:04;96188.09;;;4.41;85.72
85304;BME280;75708;47.930;13.782;2024-02-28T06:05:30;96196.25;;;4.33;85.80
85304;BME280;75708;47.930;13.782;2024-02-28T06:07:56;96193.81;;;4.31;85.68
85304;BME280;75708;47.930;13.782;2024-02-28T06:10:21;96188.75;;;4.23;85.51
85304;BME280;75708;47.930;13.782;2024-02-28T06:12:47;96194.25;;;4.22;86.41
85304;BME280;75708;47.930;13.782;2024-02-28T06:15:12;96193.81;;;4.38;85.17
85304;BME280;75708;47.930;13.782;2024-02-28T06:17:38;96202.34;;;4.46;84.79
85304;BME280;75708;47.930;13.782;2024-02-28T06:20:05;96199.31;;;4.36;85.19
85304;BME280;75708;47.930;13.782;2024-02-28T06:22:31;96206.44;;;4.23;86.19
85304;BME280;75708;47.930;13.782;2024-02-28T06:24:57;96200.13;;;4.24;85.62
85304;BME280;75708;47.930;13.782;2024-02-28T06:27:22;96207.25;;;4.36;85.63
85304;BME280;75708;47.930;13.782;2024-02-28T06:29:48;96202.53;;;4.45;85.74
85304;BME280;75708;47.930;13.782;2024-02-28T06:32:14;96205.97;;;4.52;85.51
85304;BME280;75708;47.930;13.782;2024-02-28T06:34:40;96203.53;;;4.64;84.60
85304;BME280;75708;47.930;13.782;2024-02-28T06:37:05;96210.16;;;4.86;84.01
85304;BME280;75708;47.930;13.782;2024-02-28T06:39:31;96208.66;;;5.03;82.89
85304;BME280;75708;47.930;13.782;2024-02-28T06:41:56;96208.97;;;5.20;82.43
85304;BME280;75708;47.930;13.782;2024-02-28T06:44:22;96204.84;;;5.30;81.06
85304;BME280;75708;47.930;13.782;2024-02-28T06:46:47;96218.03;;;5.37;81.30
85304;BME280;75708;47.930;13.782;2024-02-28T06:49:13;96210.72;;;5.39;81.24
85304;BME280;75708;47.930;13.782;2024-02-28T06:51:38;96218.28;;;5.36;80.84
85304;BME280;75708;47.930;13.782;2024-02-28T06:54:04;96213.81;;;5.29;81.40
85304;BME280;75708;47.930;13.782;2024-02-28T06:56:32;96216.91;;;5.20;82.79
85304;BME280;75708;47.930;13.782;2024-02-28T06:58:57;96220.25;;;5.02;84.29
85304;BME280;75708;47.930;13.782;2024-02-28T07:01:23;96231.59;;;4.58;86.94
85304;BME280;75708;47.930;13.782;2024-02-28T07:03:48;96222.28;;;4.42;87.24
85304;BME280;75708;47.930;13.782;2024-02-28T07:06:14;96227.38;;;4.37;87.30
85304;BME280;75708;47.930;13.782;2024-02-28T07:08:39;96242.44;;;4.24;87.62
85304;BME280;75708;47.930;13.782;2024-02-28T07:11:05;96256.69;;;4.29;87.87
85304;BME280;75708;47.930;13.782;2024-02-28T07:13:37;96252.63;;;4.20;87.92
85304;BME280;75708;47.930;13.782;2024-02-28T07:16:03;96256.28;;;4.39;87.87
85304;BME280;75708;47.930;13.782;2024-02-28T07:18:29;96264.59;;;4.23;87.76
85304;BME280;75708;47.930;13.782;2024-02-28T07:20:55;96273.97;;;4.25;88.33
85304;BME280;75708;47.930;13.782;2024-02-28T07:23:20;96265.81;;;4.13;88.32
85304;BME280;75708;47.930;13.782;2024-02-28T07:25:46;96269.88;;;4.23;88.52
85304;BME280;75708;47.930;13.782;2024-02-28T07:28:11;96280.47;;;4.36;88.35
85304;BME280;75708;47.930;13.782;2024-02-28T07:30:37;96283.09;;;4.62;86.39
85304;BME280;75708;47.930;13.782;2024-02-28T07:33:05;96269.88;;;4.42;86.21
85304;BME280;75708;47.930;13.782;2024-02-28T07:35:30;96297.75;;;4.51;87.11
85304;BME280;75708;47.930;13.782;2024-02-28T07:37:56;96291.63;;;4.58;87.22
85304;BME280;75708;47.930;13.782;2024-02-28T07:40:21;96304.25;;;4.62;86.42
85304;BME280;75708;47.930;13.782;2024-02-28T07:42:47;96291.81;;;4.69;86.37
85304;BME280;75708;47.930;13.782;2024-02-28T07:45:12;96299.50;;;4.84;86.29
85304;BME280;75708;47.930;13.782;2024-02-28T07:47:39;96293.41;;;4.90;86.07
85304;BME280;75708;47.930;13.782;2024-02-28T07:50:06;96302.94;;;5.04;85.33
85304;BME280;75708;47.930;13.782;2024-02-28T07:52:32;96311.06;;;5.03;86.66
85304;BME280;75708;47.930;13.782;2024-02-28T07:55:01;96311.91;;;5.10;85.87
85304;BME280;75708;47.930;13.782;2024-02-28T07:57:27;96310.44;;;5.14;86.08
85304;BME280;75708;47.930;13.782;2024-02-28T07:59:52;96315.22;;;5.37;85.61
85304;BME280;75708;47.930;13.782;2024-02-28T08:02:18;96316.28;;;5.29;85.66
85304;BME280;75708;47.930;13.782;2024-02-28T08:04:45;96328.47;;;5.37;85.92
85304;BME280;75708;47.930;13.782;2024-02-28T08:07:11;96320.72;;;5.42;85.35
85304;BME280;75708;47.930;13.782;2024-02-28T08:09:36;96322.59;;;5.35;85.85
85304;BME280;75708;47.930;13.782;2024-02-28T08:12:02;96313.41;;;5.37;85.23
85304;BME280;75708;47.930;13.782;2024-02-28T08:14:28;96330.44;;;5.54;85.44
85304;BME280;75708;47.930;13.782;2024-02-28T08:16:54;96331.63;;;5.65;85.35
85304;BME280;75708;47.930;13.782;2024-02-28T08:19:19;96325.66;;;5.76;85.14
85304;BME280;75708;47.930;13.782;2024-02-28T08:21:44;96332.78;;;5.76;84.78
85304;BME280;75708;47.930;13.782;2024-02-28T08:24:10;96328.47;;;5.81;84.13
85304;BME280;75708;47.930;13.782;2024-02-28T08:26:36;96314.66;;;5.73;83.91
85304;BME280;75708;47.930;13.782;2024-02-28T08:29:01;96321.31;;;5.95;83.28
85304;BME280;75708;47.930;13.782;2024-02-28T08:31:28;96320.72;;;5.86;84.06
85304;BME280;75708;47.930;13.782;2024-02-28T08:33:53;96334.50;;;6.01;83.19
85304;BME280;75708;47.930;13.782;2024-02-28T08:36:20;96325.75;;;6.01;83.89
85304;BME280;75708;47.930;13.782;2024-02-28T08:38:46;96322.47;;;6.06;82.69
85304;BME280;75708;47.930;13.782;2024-02-28T08:41:11;96328.09;;;6.16;82.97
85304;BME280;75708;47.930;13.782;2024-02-28T08:43:41;96322.75;;;6.22;83.27
85304;BME280;75708;47.930;13.782;2024-02-28T08:46:06;96333.47;;;6.34;82.19
85304;BME280;75708;47.930;13.782;2024-02-28T08:48:32;96335.97;;;6.29;81.67
85304;BME280;75708;47.930;13.782;2024-02-28T08:50:58;96338.78;;;6.34;81.54
85304;BME280;75708;47.930;13.782;2024-02-28T08:53:23;96334.13;;;6.29;81.19
85304;BME280;75708;47.930;13.782;2024-02-28T08:55:49;96343.66;;;6.37;81.61
85304;BME280;75708;47.930;13.782;2024-02-28T08:58:14;96345.72;;;6.60;80.91
85304;BME280;75708;47.930;13.782;2024-02-28T09:00:40;96341.81;;;7.05;78.71
85304;BME280;75708;47.930;13.782;2024-02-28T09:03:05;96344.94;;;7.02;76.40
85304;BME280;75708;47.930;13.782;2024-02-28T09:05:31;96332.53;;;7.14;77.40
85304;BME280;75708;47.930;13.782;2024-02-28T09:07:57;96350.00;;;7.04;77.39
85304;BME280;75708;47.930;13.782;2024-02-28T09:10:23;96339.56;;;7.27;75.98
85304;BME280;75708;47.930;13.782;2024-02-28T09:12:51;96346.19;;;7.18;75.61
85304;BME280;75708;47.930;13.782;2024-02-28T09:15:17;96342.56;;;6.94;77.18
85304;BME280;75708;47.930;13.782;2024-02-28T09:17:43;96349.72;;;6.94;77.14
85304;BME280;75708;47.930;13.782;2024-02-28T09:20:10;96333.69;;;6.82;76.40
85304;BME280;75708;47.930;13.782;2024-02-28T09:22:35;96324.88;;;6.63;78.02
85304;BME280;75708;47.930;13.782;2024-02-28T09:25:01;96354.66;;;6.65;78.26
85304;BME280;75708;47.930;13.782;2024-02-28T09:27:30;96349.56;;;6.64;79.03
85304;BME280;75708;47.930;13.782;2024-02-28T09:29:55;96358.31;;;6.89;77.92
85304;BME280;75708;47.930;13.782;2024-02-28T09:32:21;96364.72;;;6.82;77.87
85304;BME280;75708;47.930;13.782;2024-02-28T09:34:46;96342.47;;;6.83;77.62
85304;BME280;75708;47.930;13.782;2024-02-28T09:37:13;96348.81;;;6.82;77.71
85304;BME280;75708;47.930;13.782;2024-02-28T09:39:40;96368.25;;;7.18;77.08
85304;BME280;75708;47.930;13.782;2024-02-28T09:42:06;96358.56;;;7.06;76.24
85304;BME280;75708;47.930;13.782;2024-02-28T09:44:34;96350.41;;;7.26;75.08
85304;BME280;75708;47.930;13.782;2024-02-28T09:46:59;96362.50;;;7.40;76.48
85304;BME280;75708;47.930;13.782;2024-02-28T09:49:26;96357.56;;;7.43;74.86
85304;BME280;75708;47.930;13.782;2024-02-28T09:51:52;96376.16;;;7.43;74.73
85304;BME280;75708;47.930;13.782;2024-02-28T09:54:18;96369.16;;;7.49;75.78
85304;BME280;75708;47.930;13.782;2024-02-28T09:56:44;96368.94;;;7.32;75.21
85304;BME280;75708;47.930;13.782;2024-02-28T09:59:10;96359.63;;;7.23;74.91
85304;BME280;75708;47.930;13.782;2024-02-28T10:01:42;96378.63;;;7.45;75.45
85304;BME280;75708;47.930;13.782;2024-02-28T10:04:09;96387.81;;;7.24;75.83
85304;BME280;75708;47.930;13.782;2024-02-28T10:06:39;96379.78;;;7.49;75.36
85304;BME280;75708;47.930;13.782;2024-02-28T10:09:04;96379.56;;;7.69;74.00
85304;BME280;75708;47.930;13.782;2024-02-28T10:11:30;96374.47;;;7.67;74.25
85304;BME280;75708;47.930;13.782;2024-02-28T10:13:55;96386.91;;;7.85;72.46
85304;BME280;75708;47.930;13.782;2024-02-28T10:16:21;96371.47;;;7.93;72.18
85304;BME280;75708;47.930;13.782;2024-02-28T10:18:47;96376.56;;;8.25;71.43
85304;BME280;75708;47.930;13.782;2024-02-28T10:21:14;96384.19;;;8.21;73.14
85304;BME280;75708;47.930;13.782;2024-02-28T10:23:44;96385.09;;;8.45;71.88
85304;BME280;75708;47.930;13.782;2024-02-28T10:26:10;96389.69;;;8.80;69.78
85304;BME280;75708;47.930;13.782;2024-02-28T10:28:39;96387.28;;;8.78;69.07
85304;BME280;75708;47.930;13.782;2024-02-28T10:31:05;96390.06;;;9.18;68.79
85304;BME280;75708;47.930;13.782;2024-02-28T10:33:32;96389.13;;;9.01;70.10
85304;BME280;75708;47.930;13.782;2024-02-28T10:35:59;96389.22;;;9.53;69.85
85304;BME280;75708;47.930;13.782;2024-02-28T10:38:26;96385.91;;;9.22;72.27
85304;BME280;75708;47.930;13.782;2024-02-28T10:40:53;96390.84;;;9.54;70.82
85304;BME280;75708;47.930;13.782;2024-02-28T10:43:19;96391.56;;;9.37;70.36
85304;BME280;75708;47.930;13.782;2024-02-28T10:45:45;96382.84;;;9.65;70.60
85304;BME280;75708;47.930;13.782;2024-02-28T10:48:13;96384.88;;;9.23;70.76
85304;BME280;75708;47.930;13.782;2024-02-28T10:50:39;96384.84;;;9.35;70.62
85304;BME280;75708;47.930;13.782;2024-02-28T10:53:12;96385.88;;;9.34;71.71
85304;BME280;75708;47.930;13.782;2024-02-28T10:55:40;96375.00;;;9.87;70.00
85304;BME280;75708;47.930;13.782;2024-02-28T10:58:09;96376.09;;;9.74;71.63
85304;BME280;75708;47.930;13.782;2024-02-28T11:00:42;96375.75;;;9.71;71.43
85304;BME280;75708;47.930;13.782;2024-02-28T11:03:09;96353.34;;;9.32;72.33
85304;BME280;75708;47.930;13.782;2024-02-28T11:05:43;96376.13;;;9.51;71.87
85304;BME280;75708;47.930;13.782;2024-02-28T11:08:21;96375.38;;;9.79;70.74
85304;BME280;75708;47.930;13.782;2024-02-28T11:10:47;96360.91;;;9.63;71.88
85304;BME280;75708;47.930;13.782;2024-02-28T11:13:27;96375.91;;;9.53;71.51
85304;BME280;75708;47.930;13.782;2024-02-28T11:15:53;96373.94;;;9.36;70.78
85304;BME280;75708;47.930;13.782;2024-02-28T11:18:20;96376.41;;;9.15;72.31
85304;BME280;75708;47.930;13.782;2024-02-28T11:20:46;96367.94;;;9.06;72.90
85304;BME280;75708;47.930;13.782;2024-02-28T11:23:13;96380.34;;;9.00;72.32
85304;BME280;75708;47.930;13.782;2024-02-28T11:25:40;96362.63;;;8.94;72.25
85304;BME280;75708;47.930;13.782;2024-02-28T11:28:06;96365.03;;;8.84;73.01
85304;BME280;75708;47.930;13.782;2024-02-28T11:30:32;96380.78;;;8.86;72.54
85304;BME280;75708;47.930;13.782;2024-02-28T11:32:58;96372.66;;;8.69;73.32
85304;BME280;75708;47.930;13.782;2024-02-28T11:35:25;96391.75;;;8.66;73.76
85304;BME280;75708;47.930;13.782;2024-02-28T11:37:54;96389.53;;;8.63;74.48
85304;BME280;75708;47.930;13.782;2024-02-28T11:40:23;96384.00;;;8.64;74.00
85304;BME280;75708;47.930;13.782;2024-02-28T11:42:51;96386.81;;;8.93;72.94
85304;BME280;75708;47.930;13.782;2024-02-28T11:45:17;96387.81;;;8.80;73.70
85304;BME280;75708;47.930;13.782;2024-02-28T11:47:42;96388.75;;;8.74;73.72
85304;BME280;75708;47.930;13.782;2024-02-28T11:50:09;96384.84;;;8.77;73.25
85304;BME280;75708;47.930;13.782;2024-02-28T11:52:34;96385.41;;;8.67;74.26
85304;BME280;75708;47.930;13.782;2024-02-28T11:55:00;96393.28;;;8.74;73.81
85304;BME280;75708;47.930;13.782;2024-02-28T11:57:26;96378.06;;;8.51;74.02
85304;BME280;75708;47.930;13.782;2024-02-28T11:59:51;96379.84;;;8.68;75.09
85304;BME280;75708;47.930;13.782;2024-02-28T12:02:17;96380.91;;;8.79;75.22
85304;BME280;75708;47.930;13.782;2024-02-28T12:04:44;96384.28;;;8.86;75.87
85304;BME280;75708;47.930;13.782;2024-02-28T12:07:09;96385.50;;;8.72;75.02
85304;BME280;75708;47.930;13.782;2024-02-28T12:09:35;96387.13;;;8.73;75.15
85304;BME280;75708;47.930;13.782;2024-02-28T12:12:01;96389.13;;;8.89;74.50
85304;BME280;75708;47.930;13.782;2024-02-28T12:14:31;96390.97;;;8.77;75.60
85304;BME280;75708;47.930;13.782;2024-02-28T12:16:58;96369.56;;;8.84;74.06
85304;BME280;75708;47.930;13.782;2024-02-28T12:19:24;96383.31;;;8.69;74.84
85304;BME280;75708;47.930;13.782;2024-02-28T12:21:49;96381.81;;;8.61;75.21
85304;BME280;75708;47.930;13.782;2024-02-28T12:24:15;96381.00;;;8.84;75.11
85304;BME280;75708;47.930;13.782;2024-02-28T12:26:41;96381.72;;;8.91;74.07
85304;BME280;75708;47.930;13.782;2024-02-28T12:29:07;96384.13;;;8.81;75.05
85304;BME280;75708;47.930;13.782;2024-02-28T12:31:32;96373.09;;;8.54;74.79
85304;BME280;75708;47.930;13.782;2024-02-28T12:33:58;96363.72;;;8.22;76.51
85304;BME280;75708;47.930;13.782;2024-02-28T12:36:24;96365.63;;;8.33;76.79
85304;BME280;75708;47.930;13.782;2024-02-28T12:38:50;96375.81;;;8.36;76.80
85304;BME280;75708;47.930;13.782;2024-02-28T12:41:16;96387.16;;;8.32;76.20
85304;BME280;75708;47.930;13.782;2024-02-28T12:43:42;96382.84;;;8.30;76.34
85304;BME280;75708;47.930;13.782;2024-02-28T12:46:08;96354.81;;;8.28;76.49
85304;BME280;75708;47.930;13.782;2024-02-28T12:48:38;96382.59;;;8.62;75.44
85304;BME280;75708;47.930;13.782;2024-02-28T12:51:04;96373.78;;;8.50;75.28
85304;BME280;75708;47.930;13.782;2024-02-28T12:53:34;96381.06;;;8.43;76.23
85304;BME280;75708;47.930;13.782;2024-02-28T12:56:00;96361.75;;;8.29;75.82